Time;durP1;ratioP1;P1;durP2;ratioP2;P2;SDS_P1;SDS_P2;PMS_P1;PMS_P2;Temp;Humidity;BMP_temperature;BMP_pressure;BME280_temperature;BME280_humidity;BME280_pressure;Samples;Min_cycle;Max_cycle;Signal;HPM_P1;HPM_P2
2023/04/02 00:00:34;;;;;;;9.75;5.28;;;4.90;99.90;;;;;;5072121;28;20048;-75
2023/04/02 00:03:02;;;;;;;4.80;4.30;;;4.90;99.90;;;;;;5072329;28;20102;-75
2023/04/02 00:05:49;;;;;;;8.80;4.97;;;4.90;99.90;;;;;;5071769;28;20557;-75
2023/04/02 00:08:28;;;;;;;5.05;4.15;;;4.90;99.90;;;;;;5076000;28;20508;-75
2023/04/02 00:10:59;;;;;;;7.93;4.55;;;4.90;99.90;;;;;;5075004;28;20081;-76
2023/04/02 00:13:32;;;;;;;7.53;4.55;;;4.90;99.90;;;;;;5075865;28;20647;-75
2023/04/02 00:16:02;;;;;;;6.47;4.75;;;4.80;99.90;;;;;;5075999;28;20049;-75
2023/04/02 00:18:27;;;;;;;5.32;4.20;;;4.80;99.90;;;;;;5075780;28;20489;-76
2023/04/02 00:21:08;;;;;;;5.78;3.47;;;4.90;99.90;;;;;;5075957;28;20048;-76
2023/04/02 00:23:37;;;;;;;8.07;4.20;;;4.70;99.90;;;;;;5076299;28;20128;-75
2023/04/02 00:26:22;;;;;;;5.45;4.18;;;4.50;99.90;;;;;;5091532;28;20051;-75
2023/04/02 00:28:48;;;;;;;6.32;4.18;;;4.60;99.90;;;;;;5075779;28;20043;-76
2023/04/02 00:31:17;;;;;;;5.57;3.55;;;4.50;99.90;;;;;;5091597;28;20052;-76
2023/04/02 00:33:43;;;;;;;6.93;4.03;;;4.40;99.90;;;;;;5074581;28;20119;-76
2023/04/02 00:36:09;;;;;;;7.15;3.97;;;4.30;99.90;;;;;;5075606;28;20147;-76
2023/04/02 00:38:34;;;;;;;6.00;4.20;;;4.30;99.90;;;;;;5074635;28;20127;-76
2023/04/02 00:41:06;;;;;;;7.97;3.85;;;4.20;99.90;;;;;;5074917;28;20048;-76
2023/04/02 00:43:35;;;;;;;7.10;4.45;;;4.10;99.90;;;;;;5076349;28;20058;-75
2023/04/02 00:46:09;;;;;;;8.05;4.20;;;4.10;99.90;;;;;;5075775;28;20076;-76
2023/04/02 00:49:08;;;;;;;5.80;3.72;;;4.00;99.90;;;;;;5076187;28;20482;-76
2023/04/02 00:51:46;;;;;;;6.82;3.83;;;3.90;99.90;;;;;;5075463;28;20098;-76
2023/04/02 00:54:14;;;;;;;5.85;3.50;;;4.20;99.90;;;;;;5075891;28;20052;-75
2023/04/02 00:56:45;;;;;;;5.30;3.78;;;3.80;99.90;;;;;;5075487;28;20178;-76
2023/04/02 00:59:28;;;;;;;7.78;4.30;;;3.70;99.90;;;;;;5075655;28;20048;-76
2023/04/02 01:02:13;;;;;;;4.97;4.15;;;3.80;99.90;;;;;;5076114;28;20110;-76
2023/04/02 01:04:40;;;;;;;7.75;4.00;;;3.70;99.90;;;;;;5075212;28;20495;-76
2023/04/02 01:07:09;;;;;;;5.63;3.88;;;3.70;99.90;;;;;;5075297;28;20044;-76
2023/04/02 01:09:58;;;;;;;6.00;4.55;;;3.60;99.90;;;;;;5075250;28;20048;-76
2023/04/02 01:12:26;;;;;;;4.97;3.25;;;3.60;99.90;;;;;;5074397;28;20512;-76
2023/04/02 01:15:16;;;;;;;7.72;4.05;;;3.60;99.90;;;;;;5075103;28;20138;-75
2023/04/02 01:17:57;;;;;;;8.07;3.83;;;3.50;99.90;;;;;;5074652;28;20040;-76
2023/04/02 01:20:37;;;;;;;7.30;3.80;;;3.50;99.90;;;;;;5075637;28;20045;-76
2023/04/02 01:23:08;;;;;;;7.13;3.78;;;3.50;99.90;;;;;;5075211;28;20080;-76
2023/04/02 01:25:45;;;;;;;5.25;3.58;;;3.40;99.90;;;;;;5074905;28;20045;-75
2023/04/02 01:28:34;;;;;;;6.78;3.67;;;3.50;99.90;;;;;;5075128;28;20056;-76
2023/04/02 01:31:01;;;;;;;4.53;3.80;;;3.30;99.90;;;;;;5074088;28;20044;-75
2023/04/02 01:33:33;;;;;;;4.97;3.30;;;3.30;99.90;;;;;;5074879;28;20047;-77
2023/04/02 01:36:10;;;;;;;5.35;3.50;;;3.30;99.90;;;;;;5074535;28;20143;-75
2023/04/02 01:38:56;;;;;;;4.93;3.55;;;3.30;99.90;;;;;;5074431;28;20044;-75
2023/04/02 01:41:40;;;;;;;7.90;3.42;;;3.20;99.90;;;;;;5074749;28;20052;-75
2023/04/02 01:44:10;;;;;;;6.82;3.85;;;3.20;99.90;;;;;;5074827;28;20091;-76
2023/04/02 01:46:40;;;;;;;4.20;3.38;;;3.10;99.90;;;;;;5074254;28;20459;-76
2023/04/02 01:49:21;;;;;;;3.83;3.38;;;3.10;99.90;;;;;;5074694;28;20088;-76
2023/04/02 01:51:52;;;;;;;5.65;3.38;;;3.70;99.90;;;;;;5074281;28;20044;-75
2023/04/02 01:54:20;;;;;;;9.20;4.28;;;3.10;99.90;;;;;;5074264;28;20410;-75
2023/04/02 01:56:46;;;;;;;8.15;2.75;;;3.10;99.90;;;;;;5074279;28;20504;-77
2023/04/02 01:59:15;;;;;;;4.38;2.58;;;3.00;99.90;;;;;;5074137;28;20131;-76
2023/04/02 02:01:56;;;;;;;6.00;3.38;;;3.00;99.90;;;;;;5074151;28;20094;-75
2023/04/02 02:04:22;;;;;;;6.75;3.13;;;3.00;99.90;;;;;;5073962;28;20042;-76
2023/04/02 02:06:48;;;;;;;6.88;4.07;;;2.90;99.90;;;;;;5107492;28;20079;-75
2023/04/02 02:09:22;;;;;;;4.97;3.30;;;2.90;99.90;;;;;;5073905;28;20561;-75
2023/04/02 02:11:50;;;;;;;3.58;2.67;;;2.90;99.90;;;;;;5074556;28;20044;-76
2023/04/02 02:14:20;;;;;;;4.38;2.58;;;2.90;99.90;;;;;;5072692;28;20430;-77
2023/04/02 02:16:46;;;;;;;3.70;2.33;;;2.80;99.90;;;;;;5074099;28;20048;-76
2023/04/02 02:19:24;;;;;;;4.35;3.25;;;2.80;99.90;;;;;;5073979;28;20044;-76
2023/04/02 02:21:55;;;;;;;3.97;2.63;;;2.80;99.90;;;;;;5074138;28;20109;-75
2023/04/02 02:24:27;;;;;;;4.32;2.83;;;2.70;99.90;;;;;;5073011;28;20049;-76
2023/04/02 02:27:05;;;;;;;5.50;2.95;;;2.70;99.90;;;;;;5074152;28;20101;-75
2023/04/02 02:29:35;;;;;;;3.80;2.35;;;2.70;99.90;;;;;;5073588;28;20076;-75
2023/04/02 02:32:03;;;;;;;5.55;2.53;;;2.90;99.90;;;;;;5073982;28;20079;-76
2023/04/02 02:34:36;;;;;;;6.60;2.95;;;2.70;99.90;;;;;;5073667;28;20123;-76
2023/04/02 02:37:07;;;;;;;3.65;2.60;;;2.70;99.90;;;;;;5073640;28;20063;-76
2023/04/02 02:39:40;;;;;;;8.60;2.90;;;2.70;99.90;;;;;;5073790;28;20051;-77
2023/04/02 02:42:09;;;;;;;7.10;2.88;;;2.50;99.90;;;;;;5073391;28;20044;-76
2023/04/02 02:44:39;;;;;;;5.40;2.58;;;2.50;99.90;;;;;;5089376;28;20045;-76
2023/04/02 02:47:14;;;;;;;5.07;2.50;;;2.60;99.90;;;;;;5072671;28;20127;-76
2023/04/02 02:49:43;;;;;;;5.68;2.50;;;2.50;99.90;;;;;;5073213;28;20500;-76
2023/04/02 02:52:08;;;;;;;4.07;2.42;;;2.70;99.90;;;;;;5073568;28;20048;-76
2023/04/02 02:54:37;;;;;;;3.70;2.35;;;2.40;99.90;;;;;;5072754;28;20059;-76
2023/04/02 02:57:07;;;;;;;5.90;2.53;;;2.40;99.90;;;;;;5073061;28;20101;-76
2023/04/02 02:59:34;;;;;;;5.80;2.33;;;2.80;99.90;;;;;;5073498;28;20104;-76
2023/04/02 03:02:01;;;;;;;3.70;2.85;;;2.40;99.90;;;;;;5073469;28;20075;-76
2023/04/02 03:04:29;;;;;;;6.38;2.75;;;2.40;99.90;;;;;;5072788;28;20533;-76
2023/04/02 03:06:57;;;;;;;5.18;2.13;;;2.40;99.90;;;;;;5072997;28;20040;-76
2023/04/02 03:09:51;;;;;;;6.75;2.22;;;2.30;99.90;;;;;;5088574;28;20389;-77
2023/04/02 03:12:29;;;;;;;6.10;2.35;;;2.30;99.90;;;;;;5072861;28;20049;-76
2023/04/02 03:15:05;;;;;;;3.85;1.77;;;2.20;99.90;;;;;;5072638;28;20045;-76
2023/04/02 03:17:43;;;;;;;4.78;2.25;;;2.20;99.90;;;;;;5072762;28;20051;-76
2023/04/02 03:20:31;;;;;;;4.18;2.15;;;2.20;99.90;;;;;;5071434;28;20052;-75
2023/04/02 03:23:14;;;;;;;5.07;2.05;;;2.20;99.90;;;;;;5072930;28;20052;-76
2023/04/02 03:25:53;;;;;;;6.72;2.15;;;2.10;99.90;;;;;;5073148;28;20037;-76
2023/04/02 03:28:24;;;;;;;4.60;1.95;;;2.10;99.90;;;;;;5072975;28;20048;-76
2023/04/02 03:30:56;;;;;;;4.35;2.72;;;2.60;99.90;;;;;;5072807;28;20053;-76
2023/04/02 03:33:41;;;;;;;4.13;2.15;;;2.10;99.90;;;;;;5073158;28;20097;-76
2023/04/02 03:36:18;;;;;;;3.92;2.10;;;2.80;99.90;;;;;;5072342;28;20480;-76
2023/04/02 03:38:50;;;;;;;5.55;2.03;;;2.10;99.90;;;;;;5071856;28;20135;-76
2023/04/02 03:41:44;;;;;;;5.22;2.22;;;2.10;99.90;;;;;;5071452;28;20060;-78
2023/04/02 03:44:38;;;;;;;3.90;2.00;;;2.10;99.90;;;;;;5065904;28;20084;-76
2023/04/02 03:47:15;;;;;;;3.75;2.17;;;2.30;99.90;;;;;;5071715;28;20144;-76
2023/04/02 03:49:48;;;;;;;4.10;1.80;;;2.00;99.90;;;;;;5072785;28;20040;-76
2023/04/02 03:52:18;;;;;;;;;;;2.00;99.90;;;;;;5073243;28;20079;-76
2023/04/02 03:54:44;;;;;;;1.70;1.60;;;1.90;99.90;;;;;;5071506;28;19971;-76
2023/04/02 03:57:35;;;;;;;5.30;1.95;;;2.00;99.90;;;;;;5072792;28;20107;-76
2023/04/02 04:00:31;;;;;;;4.47;1.80;;;1.90;99.90;;;;;;5072808;28;20045;-76
2023/04/02 04:03:10;;;;;;;2.22;1.73;;;1.90;99.90;;;;;;5106406;28;20087;-76
2023/04/02 04:05:42;;;;;;;2.97;2.10;;;1.90;99.90;;;;;;5071975;28;20059;-76
2023/04/02 04:08:15;;;;;;;3.95;2.10;;;1.90;99.90;;;;;;5072631;28;20110;-77
2023/04/02 04:10:42;;;;;;;2.83;1.70;;;2.10;99.90;;;;;;5072893;28;20098;-76
2023/04/02 04:13:21;;;;;;;3.75;2.75;;;1.90;99.90;;;;;;5072901;28;20404;-76
2023/04/02 04:16:08;;;;;;;4.22;2.13;;;3.10;99.90;;;;;;5071494;28;20334;-76
2023/04/02 04:18:47;;;;;;;2.50;1.80;;;1.80;99.90;;;;;;5072712;28;20052;-76
2023/04/02 04:21:38;;;;;;;4.05;1.92;;;1.90;99.90;;;;;;5071250;28;20103;-76
2023/04/02 04:24:15;;;;;;;2.13;1.90;;;1.90;99.90;;;;;;5072448;28;20059;-76
2023/04/02 04:26:48;;;;;;;8.10;2.00;;;1.80;99.90;;;;;;5072744;28;20063;-76
2023/04/02 04:29:31;;;;;;;3.08;2.50;;;1.80;99.90;;;;;;5072069;28;20040;-77
2023/04/02 04:32:07;;;;;;;;;;;1.80;99.90;;;;;;5072933;28;20126;-76
2023/04/02 04:34:45;;;;;;;5.70;2.65;;;1.80;99.90;;;;;;5104498;28;19927;-76
2023/04/02 04:37:32;;;;;;;5.95;2.40;;;1.80;99.90;;;;;;5071580;28;20095;-77
2023/04/02 04:40:18;;;;;;;3.67;2.80;;;1.80;99.90;;;;;;5072307;28;20057;-77
2023/04/02 04:42:46;;;;;;;6.57;2.33;;;1.80;99.90;;;;;;5070788;28;20527;-77
2023/04/02 04:45:18;;;;;;;5.88;2.33;;;1.80;99.90;;;;;;5070953;28;20457;-77
2023/04/02 04:47:57;;;;;;;2.65;1.73;;;2.00;99.90;;;;;;5071746;28;20500;-76
2023/04/02 04:50:45;;;;;;;4.72;2.58;;;1.80;99.90;;;;;;5071895;28;20178;-77
2023/04/02 04:53:19;;;;;;;4.43;2.03;;;1.80;99.90;;;;;;5071855;28;20044;-76
2023/04/02 04:55:48;;;;;;;8.75;2.30;;;1.80;99.90;;;;;;5075766;28;20045;-77
2023/04/02 04:58:31;;;;;;;4.88;2.17;;;1.80;99.90;;;;;;5074728;28;20471;-76
2023/04/02 05:01:14;;;;;;;5.28;2.25;;;1.80;99.90;;;;;;5075377;28;20388;-75
2023/04/02 05:03:49;;;;;;;3.45;1.90;;;1.80;99.90;;;;;;5075215;28;20036;-75
2023/04/02 05:06:40;;;;;;;3.25;1.92;;;2.60;99.90;;;;;;5075034;28;20504;-76
2023/04/02 05:09:12;;;;;;;3.60;2.92;;;1.80;99.90;;;;;;5075203;28;20058;-76
2023/04/02 05:11:51;;;;;;;3.67;2.13;;;1.80;99.90;;;;;;5074940;28;20142;-75
2023/04/02 05:14:35;;;;;;;7.85;2.33;;;1.80;99.90;;;;;;5074947;28;20145;-75
2023/04/02 05:17:12;;;;;;;2.85;1.98;;;2.40;99.90;;;;;;5074635;28;20052;-77
2023/04/02 05:20:08;;;;;;;3.15;2.35;;;1.80;99.90;;;;;;5074818;28;20450;-75
2023/04/02 05:22:54;;;;;;;2.58;1.92;;;2.10;99.90;;;;;;5107898;28;20048;-75
2023/04/02 05:25:31;;;;;;;5.47;2.65;;;1.80;99.90;;;;;;5075041;28;20043;-75
2023/04/02 05:28:10;;;;;;;5.47;2.22;;;1.80;99.90;;;;;;5074628;28;20051;-74
2023/04/02 05:30:54;;;;;;;5.70;2.10;;;1.80;99.90;;;;;;5074677;28;20056;-76
2023/04/02 05:33:19;;;;;;;;;;;1.80;99.90;;;;;;5074179;28;20048;-76
2023/04/02 05:35:49;;;;;;;4.05;1.83;;;1.80;99.90;;;;;;5074444;28;19965;-76
2023/04/02 05:38:24;;;;;;;3.20;2.00;;;2.20;99.90;;;;;;5074464;28;20052;-77
2023/04/02 05:40:58;;;;;;;4.38;2.42;;;1.80;99.90;;;;;;5074726;28;20041;-75
2023/04/02 05:43:26;;;;;;;3.17;2.00;;;2.30;99.90;;;;;;5074111;28;20516;-76
2023/04/02 05:45:56;;;;;;;9.60;2.40;;;2.30;99.90;;;;;;5074697;28;20044;-74
2023/04/02 05:48:36;;;;;;;3.35;2.95;;;1.90;99.90;;;;;;5074400;28;20428;-75
2023/04/02 05:51:04;;;;;;;9.50;2.75;;;2.00;99.90;;;;;;5074797;28;20442;-75
2023/04/02 05:53:36;;;;;;;6.10;2.08;;;2.00;99.90;;;;;;5074211;28;20489;-75
2023/04/02 05:56:27;;;;;;;4.67;2.40;;;2.20;99.90;;;;;;5074305;28;20048;-76
2023/04/02 05:59:19;;;;;;;3.05;2.15;;;2.10;99.90;;;;;;5073689;28;20401;-76
2023/04/02 06:02:23;;;;;;;5.20;2.65;;;2.10;99.90;;;;;;5074279;28;20071;-77
2023/04/02 06:05:03;;;;;;;4.05;2.15;;;2.10;99.90;;;;;;5089162;28;20048;-75
2023/04/02 06:07:40;;;;;;;2.28;1.85;;;2.20;99.90;;;;;;5073980;28;20055;-76
2023/04/02 06:10:12;;;;;;;4.45;2.10;;;1.40;99.90;;;;;;5073128;28;20094;-75
2023/04/02 06:13:06;;;;;;;3.63;2.03;;;2.20;99.90;;;;;;5073869;28;20115;-75
2023/04/02 06:15:33;;;;;;;4.95;1.58;;;2.40;99.90;;;;;;5071595;28;20052;-75
2023/04/02 06:18:07;;;;;;;4.32;2.00;;;2.30;99.90;;;;;;5073600;28;20474;-75
2023/04/02 06:20:32;;;;;;;;;;;2.40;99.90;;;;;;5074150;28;20045;-74
2023/04/02 06:23:00;;;;;;;3.15;1.95;;;2.40;99.90;;;;;;5073622;28;19924;-75
2023/04/02 06:25:48;;;;;;;2.63;1.60;;;2.50;99.90;;;;;;5072441;28;20100;-75
2023/04/02 06:28:24;;;;;;;3.17;1.60;;;2.00;99.90;;;;;;5072765;28;20405;-76
2023/04/02 06:30:53;;;;;;;5.90;2.85;;;2.60;99.90;;;;;;5072348;28;20048;-75
2023/04/02 06:33:19;;;;;;;3.95;2.13;;;2.70;99.90;;;;;;5073720;28;20059;-75
2023/04/02 06:35:46;;;;;;;7.45;3.03;;;2.70;99.90;;;;;;5073306;28;20060;-76
2023/04/02 06:38:18;;;;;;;2.78;1.90;;;2.90;99.90;;;;;;5072177;28;20050;-75
2023/04/02 06:41:01;;;;;;;4.72;2.13;;;3.00;99.90;;;;;;5073613;28;20049;-75
2023/04/02 06:43:56;;;;;;;2.13;1.70;;;3.20;99.90;;;;;;5073071;28;20047;-75
2023/04/02 06:46:25;;;;;;;5.90;2.28;;;3.30;99.90;;;;;;5073296;28;20056;-76
2023/04/02 06:48:55;;;;;;;2.55;1.73;;;3.90;99.90;;;;;;5073091;28;20093;-75
2023/04/02 06:51:23;;;;;;;2.65;1.58;;;3.80;99.90;;;;;;5073620;28;20056;-76
2023/04/02 06:53:50;;;;;;;4.75;2.08;;;3.50;99.90;;;;;;5073275;28;20485;-76
2023/04/02 06:56:19;;;;;;;3.75;2.10;;;3.80;99.90;;;;;;5072732;28;20048;-75
2023/04/02 06:58:45;;;;;;;5.47;1.88;;;3.70;99.90;;;;;;5072742;28;20048;-75
2023/04/02 07:01:25;;;;;;;4.43;1.60;;;3.70;99.90;;;;;;5071511;28;20051;-75
2023/04/02 07:03:51;;;;;;;4.43;1.90;;;3.80;99.90;;;;;;5073035;28;20055;-76
2023/04/02 07:06:19;;;;;;;8.02;2.25;;;3.90;99.90;;;;;;5072983;28;20041;-76
2023/04/02 07:08:46;;;;;;;9.00;2.50;;;4.00;99.90;;;;;;5072901;28;20036;-77
2023/04/02 07:11:17;;;;;;;4.43;1.73;;;4.00;99.90;;;;;;5073064;28;20045;-75
2023/04/02 07:13:43;;;;;;;6.28;2.03;;;4.10;99.90;;;;;;5073450;28;20122;-76
2023/04/02 07:16:18;;;;;;;2.67;1.60;;;4.10;99.90;;;;;;5072416;28;20037;-76
2023/04/02 07:18:45;;;;;;;3.17;2.22;;;4.40;99.90;;;;;;5072966;28;20091;-76
2023/04/02 07:21:11;;;;;;;3.35;1.70;;;4.40;99.90;;;;;;5073159;28;20056;-76
2023/04/02 07:23:37;;;;;;;6.55;2.15;;;4.50;99.90;;;;;;5072654;28;20369;-77
2023/04/02 07:26:05;;;;;;;1.92;1.70;;;4.70;99.90;;;;;;5072664;28;20044;-75
2023/04/02 07:28:31;;;;;;;4.00;1.98;;;4.70;99.90;;;;;;5072659;28;20052;-76
2023/04/02 07:30:57;;;;;;;4.70;1.83;;;5.00;99.90;;;;;;5072654;28;20048;-77
2023/04/02 07:33:26;;;;;;;1.55;1.35;;;5.30;99.90;;;;;;5072230;28;20048;-76
2023/04/02 07:35:54;;;;;;;1.70;1.60;;;6.30;99.90;;;;;;5070904;28;20589;-76
2023/04/02 07:38:20;;;;;;;2.72;1.60;;;7.30;99.90;;;;;;5072637;28;20367;-75
2023/04/02 07:40:46;;;;;;;3.05;1.50;;;7.80;99.90;;;;;;5071978;28;20114;-76
2023/04/02 07:43:12;;;;;;;2.70;1.33;;;8.60;99.90;;;;;;5072328;28;20076;-77
2023/04/02 07:45:38;;;;;;;2.17;1.33;;;8.90;99.90;;;;;;5072417;28;20082;-76
2023/04/02 07:48:09;;;;;;;2.72;2.28;;;8.50;99.90;;;;;;5072190;28;20386;-76
2023/04/02 07:50:35;;;;;;;2.97;1.17;;;8.10;99.90;;;;;;5072008;28;20041;-75
2023/04/02 07:53:01;;;;;;;2.65;1.45;;;8.40;99.90;;;;;;5072360;28;20048;-76
2023/04/02 07:55:27;;;;;;;3.55;1.65;;;7.70;99.90;;;;;;5072523;28;20056;-76
2023/04/02 07:57:56;;;;;;;2.33;1.67;;;7.00;99.90;;;;;;5072207;28;20044;-77
2023/04/02 08:00:23;;;;;;;6.57;1.70;;;7.20;99.90;;;;;;5072309;28;20041;-76
2023/04/02 08:02:49;;;;;;;2.72;1.35;;;7.20;99.90;;;;;;5072926;28;20040;-78
2023/04/02 08:05:16;;;;;;;1.77;1.67;;;6.70;99.90;;;;;;5072765;28;20044;-77
2023/04/02 08:07:43;;;;;;;4.30;2.58;;;6.60;99.90;;;;;;5072711;28;20049;-76
2023/04/02 08:10:10;;;;;;;4.22;1.92;;;6.40;99.90;;;;;;5072229;28;20059;-75
2023/04/02 08:12:36;;;;;;;4.20;1.83;;;6.70;99.90;;;;;;5072117;28;20044;-76
2023/04/02 08:15:04;;;;;;;2.75;1.67;;;7.00;99.90;;;;;;5072528;28;20440;-75
2023/04/02 08:17:30;;;;;;;2.47;1.23;;;7.30;99.90;;;;;;5072160;28;20130;-75
2023/04/02 08:20:03;;;;;;;3.17;1.83;;;7.10;99.90;;;;;;5072161;28;20052;-73
2023/04/02 08:22:30;;;;;;;3.75;1.60;;;7.30;99.90;;;;;;5072373;28;20045;-76
2023/04/02 08:24:56;;;;;;;3.75;1.60;;;7.30;99.90;;;;;;5072402;28;20041;-76
2023/04/02 08:27:25;;;;;;;1.38;1.25;;;7.40;99.90;;;;;;5072643;28;20041;-77
2023/04/02 08:29:51;;;;;;;2.92;1.88;;;7.20;99.90;;;;;;5075786;28;20454;-78
2023/04/02 08:32:17;;;;;;;2.17;1.42;;;7.20;99.90;;;;;;5075755;28;20123;-77
2023/04/02 08:34:43;;;;;;;2.58;1.75;;;7.60;99.90;;;;;;5075762;28;20121;-77
2023/04/02 08:37:12;;;;;;;4.93;1.80;;;7.60;99.90;;;;;;5075526;28;20060;-77
2023/04/02 08:39:38;;;;;;;2.97;1.42;;;7.20;99.90;;;;;;5076131;28;20040;-77
2023/04/02 08:42:30;;;;;;;2.85;1.70;;;6.80;99.90;;;;;;5075621;28;20060;-77
2023/04/02 08:45:12;;;;;;;4.93;2.35;;;6.70;99.90;;;;;;5075636;28;20040;-77
2023/04/02 08:47:39;;;;;;;3.15;1.60;;;7.80;99.90;;;;;;5074654;28;20510;-77
2023/04/02 08:50:25;;;;;;;1.55;1.35;;;9.00;99.90;;;;;;5075436;28;20094;-77
2023/04/02 08:52:51;;;;;;;7.25;1.70;;;9.50;99.90;;;;;;5075455;28;20124;-76
2023/04/02 08:55:31;;;;;;;2.67;1.63;;;10.10;99.90;;;;;;5075250;28;20123;-77
2023/04/02 08:58:12;;;;;;;9.65;1.75;;;10.10;99.90;;;;;;5075628;28;20041;-76
2023/04/02 09:00:44;;;;;;;4.32;1.85;;;9.40;99.90;;;;;;5075162;28;20040;-77
2023/04/02 09:03:20;;;;;;;1.33;1.23;;;8.80;99.90;;;;;;5074003;28;20040;-76
2023/04/02 09:05:48;;;;;;;3.00;1.20;;;9.70;99.90;;;;;;5075526;28;20056;-78
2023/04/02 09:08:26;;;;;;;3.70;1.67;;;9.70;99.90;;;;;;5075753;28;20056;-77
2023/04/02 09:11:20;;;;;;;1.35;1.13;;;9.80;97.30;;;;;;5075159;28;20058;-77
2023/04/02 09:13:51;;;;;;;2.58;1.30;;;9.40;97.60;;;;;;5075999;28;20467;-78
2023/04/02 09:16:21;;;;;;;2.45;1.45;;;9.50;99.80;;;;;;5074989;28;20045;-77
2023/04/02 09:18:49;;;;;;;5.88;1.38;;;9.20;97.90;;;;;;5075038;28;20465;-78
2023/04/02 09:21:27;;;;;;;1.88;1.27;;;9.80;99.90;;;;;;5074865;28;20044;-78
2023/04/02 09:23:53;;;;;;;2.40;1.17;;;10.50;99.90;;;;;;5074948;28;20477;-79
2023/04/02 09:26:27;;;;;;;1.75;1.23;;;10.40;99.90;;;;;;5075364;28;20070;-78
2023/04/02 09:29:07;;;;;;;3.17;1.73;;;10.90;98.40;;;;;;5074219;28;20055;-78
2023/04/02 09:31:49;;;;;;;1.77;1.15;;;10.80;97.00;;;;;;5075141;28;20048;-78
2023/04/02 09:34:35;;;;;;;4.80;1.90;;;11.20;99.90;;;;;;5075100;28;20123;-78
2023/04/02 09:37:24;;;;;;;2.45;0.98;;;10.60;99.90;;;;;;5073253;28;20049;-78
2023/04/02 09:39:50;;;;;;;4.30;2.40;;;10.50;99.90;;;;;;5074348;28;20041;-78
2023/04/02 09:42:37;;;;;;;2.53;1.27;;;10.60;99.90;;;;;;5074675;28;20048;-79
2023/04/02 09:45:23;;;;;;;2.97;1.42;;;10.40;97.00;;;;;;5074573;28;20041;-78
2023/04/02 09:47:50;;;;;;;4.90;1.33;;;9.90;96.80;;;;;;5073190;28;20051;-79
2023/04/02 09:50:33;;;;;;;2.70;1.27;;;10.50;99.90;;;;;;5074489;28;20048;-78
2023/04/02 09:53:29;;;;;;;1.45;1.13;;;10.50;96.70;;;;;;5073359;28;20049;-78
2023/04/02 09:56:13;;;;;;;3.22;1.30;;;11.50;99.00;;;;;;5074188;28;20039;-78
2023/04/02 09:58:40;;;;;;;1.65;1.20;;;11.90;99.90;;;;;;5074532;28;20055;-77
2023/04/02 10:01:27;;;;;;;3.40;1.25;;;11.30;94.50;;;;;;5073244;28;20138;-78
2023/04/02 10:03:52;;;;;;;4.80;1.45;;;10.10;95.30;;;;;;5073810;28;20048;-78
2023/04/02 10:06:18;;;;;;;3.30;1.50;;;9.90;96.60;;;;;;5073963;28;20049;-78
2023/04/02 10:08:45;;;;;;;2.75;1.52;;;10.10;97.90;;;;;;5073879;28;20052;-78
2023/04/02 10:11:25;;;;;;;1.50;1.33;;;9.90;98.80;;;;;;5073780;28;20052;-78
2023/04/02 10:14:20;;;;;;;2.33;1.25;;;9.80;99.90;;;;;;5073486;28;20424;-77
2023/04/02 10:16:52;;;;;;;5.43;2.15;;;10.90;99.90;;;;;;5074308;28;20032;-79
2023/04/02 10:19:39;;;;;;;1.52;1.33;;;11.60;97.80;;;;;;5074282;28;20053;-78
2023/04/02 10:22:19;;;;;;;2.90;1.42;;;11.60;96.90;;;;;;5075133;28;20048;-76
2023/04/02 10:24:46;;;;;;;1.65;1.10;;;11.60;95.60;;;;;;5074559;28;20123;-77
2023/04/02 10:27:38;;;;;;;4.53;1.30;;;12.20;98.60;;;;;;5074202;28;20080;-78
2023/04/02 10:30:11;;;;;;;1.92;1.10;;;12.00;93.70;;;;;;5072907;28;20131;-79
2023/04/02 10:32:37;;;;;;;;;;;12.60;97.70;;;;;;5073799;28;20054;-78
2023/04/02 10:35:25;;;;;;;4.15;1.42;;;12.50;94.60;;;;;;5073520;28;19920;-77
2023/04/02 10:38:20;;;;;;;1.90;0.90;;;12.30;95.90;;;;;;5073966;28;20064;-77
2023/04/02 10:40:52;;;;;;;1.58;0.95;;;13.00;96.10;;;;;;5065308;28;20423;-78
2023/04/02 10:43:40;;;;;;;3.05;1.80;;;12.10;94.60;;;;;;5073745;28;20456;-79
2023/04/02 10:46:14;;;;;;;2.45;1.63;;;11.30;93.10;;;;;;5073392;28;20129;-78
2023/04/02 10:49:09;;;;;;;2.35;1.05;;;11.40;96.90;;;;;;5073320;28;20048;-78
2023/04/02 10:51:42;;;;;;;3.25;2.80;;;11.10;98.50;;;;;;5061081;28;20052;-77
2023/04/02 10:54:17;;;;;;;1.98;1.23;;;10.60;97.60;;;;;;5073073;28;20045;-77
2023/04/02 10:56:43;;;;;;;1.50;0.95;;;10.30;95.60;;;;;;5072900;28;20041;-78
2023/04/02 10:59:20;;;;;;;6.47;4.10;;;10.10;99.90;;;;;;5071956;28;20115;-77
2023/04/02 11:01:48;;;;;;;2.47;1.92;;;9.40;96.80;;;;;;5071788;28;20048;-78
2023/04/02 11:04:42;;;;;;;3.75;1.27;;;9.00;97.40;;;;;;5072362;28;20053;-78
2023/04/02 11:07:16;;;;;;;2.92;1.95;;;9.00;96.90;;;;;;5073125;28;20048;-77
2023/04/02 11:09:45;;;;;;;3.40;1.13;;;8.90;96.90;;;;;;5072743;28;20048;-77
2023/04/02 11:12:39;;;;;;;4.93;1.52;;;8.90;98.50;;;;;;5071953;28;20136;-78
2023/04/02 11:15:12;;;;;;;;;;;9.00;98.90;;;;;;5073006;28;20146;-77
2023/04/02 11:17:38;;;;;;;3.97;1.10;;;8.80;97.60;;;;;;5105331;28;19927;-78
2023/04/02 11:20:42;;;;;;;2.80;1.40;;;8.90;99.00;;;;;;5072130;28;20048;-78
2023/04/02 11:23:14;;;;;;;1.23;0.98;;;9.00;97.40;;;;;;5072546;28;20040;-77
2023/04/02 11:25:41;;;;;;;3.47;1.30;;;9.10;98.80;;;;;;5072644;28;20048;-77
2023/04/02 11:28:26;;;;;;;1.20;1.10;;;8.70;98.90;;;;;;5072481;28;20044;-77
2023/04/02 11:30:52;;;;;;;2.53;1.00;;;9.30;99.50;;;;;;5072173;28;20421;-77
2023/04/02 11:33:32;;;;;;;1.92;1.42;;;9.50;99.90;;;;;;5071591;28;20522;-78
2023/04/02 11:35:58;;;;;;;6.82;1.50;;;9.30;98.50;;;;;;5072025;28;20121;-77
2023/04/02 11:38:23;;;;;;;1.90;1.70;;;9.20;99.10;;;;;;5087966;28;20087;-78
2023/04/02 11:40:55;;;;;;;2.33;1.45;;;9.30;99.90;;;;;;5072431;28;20084;-77
2023/04/02 11:43:34;;;;;;;2.30;1.17;;;9.30;99.90;;;;;;5072299;28;20114;-77
2023/04/02 11:46:07;;;;;;;2.53;1.42;;;9.20;98.80;;;;;;5072778;28;20048;-78
2023/04/02 11:48:35;;;;;;;;;;;9.20;99.90;;;;;;5073118;28;20045;-78
2023/04/02 11:51:21;;;;;;;3.17;1.00;;;9.30;99.00;;;;;;5072657;28;19947;-78
2023/04/02 11:53:48;;;;;;;2.60;1.30;;;9.30;99.60;;;;;;5061875;28;20106;-77
2023/04/02 11:56:34;;;;;;;4.03;1.42;;;9.30;99.00;;;;;;5073246;28;20048;-78
2023/04/02 11:59:31;;;;;;;4.88;1.30;;;9.60;98.60;;;;;;5072921;28;20054;-77
2023/04/02 12:02:27;;;;;;;2.20;1.20;;;9.50;97.50;;;;;;5072189;28;20044;-77
2023/04/02 12:05:28;;;;;;;2.97;1.23;;;9.60;98.10;;;;;;5076809;28;20106;-77
2023/04/02 12:08:13;;;;;;;3.50;1.25;;;10.30;98.40;;;;;;5089484;28;20055;-81
2023/04/02 12:10:58;;;;;;;3.22;1.48;;;9.80;98.80;;;;;;5076776;28;20075;-79
2023/04/02 12:13:39;;;;;;;2.28;1.70;;;9.70;97.70;;;;;;5076113;28;20076;-78
2023/04/02 12:16:12;;;;;;;3.58;1.20;;;9.50;97.70;;;;;;5075807;28;20098;-78
2023/04/02 12:18:46;;;;;;;1.48;1.17;;;9.40;98.40;;;;;;5076698;28;20103;-77
2023/04/02 12:21:20;;;;;;;1.30;1.20;;;9.40;98.30;;;;;;5076145;28;20055;-77
2023/04/02 12:23:47;;;;;;;1.85;1.35;;;9.40;98.90;;;;;;5075196;28;20060;-77
2023/04/02 12:26:36;;;;;;;2.00;1.25;;;9.50;99.10;;;;;;5075691;28;20487;-76
2023/04/02 12:29:25;;;;;;;2.75;1.73;;;9.50;99.00;;;;;;5075967;28;20045;-76
2023/04/02 12:31:53;;;;;;;1.42;1.00;;;9.50;97.80;;;;;;5075847;28;20048;-76
2023/04/02 12:34:21;;;;;;;1.88;1.23;;;9.50;98.70;;;;;;5075648;28;20083;-76
2023/04/02 12:36:58;;;;;;;3.30;1.20;;;9.50;99.10;;;;;;5075586;28;20053;-76
2023/04/02 12:39:24;;;;;;;0.90;0.90;;;9.40;98.40;;;;;;5075719;28;20123;-76
2023/04/02 12:41:50;;;;;;;2.65;1.88;;;9.50;98.90;;;;;;5074863;28;20475;-76
2023/04/02 12:44:20;;;;;;;2.03;1.15;;;9.40;98.30;;;;;;5075974;28;20051;-79
2023/04/02 12:46:47;;;;;;;1.85;0.90;;;9.60;98.70;;;;;;5075884;28;20052;-80
2023/04/02 12:49:34;;;;;;;2.28;1.80;;;9.70;99.30;;;;;;5075278;28;20098;-80
2023/04/02 12:52:15;;;;;;;4.82;1.10;;;9.70;98.10;;;;;;5074694;28;20044;-80
2023/04/02 12:54:46;;;;;;;2.22;1.30;;;9.80;98.60;;;;;;5074650;28;20048;-81
2023/04/02 12:57:24;;;;;;;2.17;1.10;;;9.80;98.70;;;;;;5074552;28;20040;-81
2023/04/02 12:59:51;;;;;;;5.78;1.38;;;9.80;98.20;;;;;;5074300;28;20051;-80
2023/04/02 13:02:23;;;;;;;2.03;1.10;;;9.60;98.10;;;;;;5074290;28;20076;-77
2023/04/02 13:04:54;;;;;;;1.10;1.00;;;9.70;99.20;;;;;;5075054;28;20037;-77
2023/04/02 13:07:24;;;;;;;3.50;1.55;;;9.70;97.60;;;;;;5075359;28;20052;-78
2023/04/02 13:09:51;;;;;;;3.00;1.33;;;9.70;96.80;;;;;;5075255;28;20053;-77
2023/04/02 13:12:37;;;;;;;1.95;1.10;;;9.70;98.40;;;;;;5075119;28;20084;-78
2023/04/02 13:15:17;;;;;;;1.38;1.27;;;9.70;97.60;;;;;;5074422;28;20052;-78
2023/04/02 13:18:00;;;;;;;6.03;1.38;;;9.90;98.50;;;;;;5074340;28;20119;-75
2023/04/02 13:20:35;;;;;;;1.15;1.10;;;9.70;97.40;;;;;;5074821;28;20066;-79
2023/04/02 13:23:30;;;;;;;1.42;1.05;;;9.70;98.60;;;;;;5074158;28;20044;-76
2023/04/02 13:26:19;;;;;;;2.53;1.50;;;9.70;97.80;;;;;;5067415;28;20072;-75
2023/04/02 13:29:18;;;;;;;1.33;0.93;;;9.80;97.50;;;;;;5074668;28;20081;-76
2023/04/02 13:31:44;;;;;;;2.10;1.20;;;9.90;97.70;;;;;;5074900;28;20143;-76
2023/04/02 13:34:10;;;;;;;1.13;0.82;;;10.00;97.60;;;;;;5075672;28;20141;-79
2023/04/02 13:36:36;;;;;;;1.08;0.85;;;9.90;97.00;;;;;;5074617;28;20057;-78
2023/04/02 13:39:02;;;;;;;2.90;1.08;;;10.00;97.10;;;;;;5073847;28;20480;-77